This is the latest recevied weather packets stored in our database for station/object DF7ER-12. If no packets are shown the sender has not sent any weather packets the latest 10 day(s).
| Time | Temp. | Humidity | Pressure | Rain* | Wind** | Luminosity | Snow |
|---|---|---|---|---|---|---|---|
| 1788066078 | 20.56° C | 95% | 997.3 hPa | - | - | - | - |
| 1788065781 | 21.11° C | 94% | 997.3 hPa | - | - | - | - |
| 1788065478 | 20.56° C | 96% | 997.2 hPa | - | - | - | - |
| 1788065178 | 21.11° C | 95% | 997.2 hPa | - | - | - | - |
| 1788064878 | 21.11° C | 95% | 997.2 hPa | - | - | - | - |
| 1788064578 | 21.11° C | 95% | 997.1 hPa | - | - | - | - |
| 1788064278 | 21.11° C | 95% | 997.1 hPa | - | - | - | - |
| 1788063978 | 21.11° C | 96% | 997 hPa | - | - | - | - |
| 1788063678 | 21.11° C | 97% | 997.1 hPa | - | - | - | - |
| 1788063378 | 21.11° C | 96% | 997.2 hPa | - | - | - | - |
| 1788063078 | 21.11° C | 95% | 997.2 hPa | - | - | - | - |
| 1788062778 | 21.11° C | 94% | 997.2 hPa | - | - | - | - |
| 1788062478 | 21.67° C | 94% | 997.3 hPa | - | - | - | - |
| 1788062178 | 21.11° C | 94% | 997.2 hPa | - | - | - | - |
| 1788061878 | 21.11° C | 94% | 997.2 hPa | - | - | - | - |
| 1788061578 | 21.11° C | 94% | 997.2 hPa | - | - | - | - |
| 1788061278 | 21.11° C | 94% | 997.1 hPa | - | - | - | - |
| 1788060978 | 21.67° C | 92% | 997.3 hPa | - | - | - | - |
| 1788060679 | 21.11° C | 95% | 997.1 hPa | - | - | - | - |
| 1788060378 | 21.11° C | 93% | 997.1 hPa | - | - | - | - |
| 1788060078 | 21.11° C | 93% | 997.1 hPa | - | - | - | - |
| 1788059778 | 21.11° C | 93% | 997.2 hPa | - | - | - | - |
| 1788059478 | 21.67° C | 92% | 997.2 hPa | - | - | - | - |
| 1788059178 | 21.67° C | 93% | 997.2 hPa | - | - | - | - |
| 1788057698 | 22.22° C | 90% | 997.3 hPa | - | - | - | - |
* Rain since midnight (hover to see other rain measurements)
** Current wind speed in m/s (hover to see current wind gust speed)